»·PEaware :: SWA4176 KLAS-KLAX

SWA4176 :: KLAS-KLAX

FLIGHT INFORMATION

Flight Status: Arrived
Operator:
Southwest Airlines
More flights by this operator :: More flights under this callsign
Pilot: Bill H. (17578)
Aircraft: BOEING 737-700
(B737)
More flights by this aircraft type
Origin: KLAS McCarran Intl
United States
Destination: KLAX Los Angeles Intl
United States
More flights between these airports :: More routes between these airports
Route: BOACH8 RIKII SHTNR ANJLL4
File this flight plan on PilotEdge
Remarks: RMK / SIMBRIEF
Altitude:
(Current/Filed)
38,000ft
Speed:
(Current/Filed)
455kts
Departed: 17-Mar-20 06:58 PM
Arrived: 17-Mar-20 07:46 PM
Distance/Time
Traveled:
205nm/0:48
Distance/Time
To Go:
Arrived

Flight Plot

Page will automatically refresh every two minutes.

Flight plan parsing failed; only flown route is shown


Map Options




Map Legend


Flown Route
Filed Route
Departure Airport
Arrival Airport
Navaid (VOR, NDB)
Fix

Horizontal Profiles

Position Reports

Time Latitude Longitude Heading Altitude Ground
Speed
17-Mar-20 18:18 36.082021 -115.148271 59 2101ft 0kts
17-Mar-20 18:19 36.082021 -115.148271 59 2101ft 0kts
17-Mar-20 18:20 36.082021 -115.148271 59 2101ft 0kts
17-Mar-20 18:21 36.082021 -115.148271 59 2101ft 0kts
17-Mar-20 18:22 36.082021 -115.148271 59 2101ft 0kts
17-Mar-20 18:23 36.082021 -115.148271 59 2101ft 0kts
17-Mar-20 18:24 36.082021 -115.148271 59 2101ft 0kts
17-Mar-20 18:25 36.082021 -115.148271 59 2101ft 0kts
17-Mar-20 18:26 36.082021 -115.148271 59 2101ft 0kts
17-Mar-20 18:27 36.082021 -115.148271 59 2101ft 0kts
17-Mar-20 18:28 36.082021 -115.148271 59 2101ft 0kts
17-Mar-20 18:29 36.082021 -115.148271 59 2101ft 0kts
17-Mar-20 18:30 36.082021 -115.148271 59 2101ft 0kts
17-Mar-20 18:31 36.082021 -115.148271 59 2101ft 0kts
17-Mar-20 18:32 36.082021 -115.148271 59 2101ft 0kts
17-Mar-20 18:33 36.082021 -115.148271 59 2101ft 0kts
17-Mar-20 18:34 36.082021 -115.148271 59 2101ft 0kts
17-Mar-20 18:35 36.082021 -115.148271 59 2101ft 0kts
17-Mar-20 18:36 36.082021 -115.148271 59 2101ft 0kts
17-Mar-20 18:37 36.082021 -115.148271 59 2101ft 0kts
17-Mar-20 18:38 36.082021 -115.148271 59 2101ft 0kts
17-Mar-20 18:39 36.082021 -115.148271 59 2101ft 0kts
17-Mar-20 18:40 36.082021 -115.148271 59 2101ft 0kts
17-Mar-20 18:41 36.082021 -115.148271 59 2101ft 0kts
17-Mar-20 18:42 36.082021 -115.148271 59 2101ft 0kts
17-Mar-20 18:43 36.082021 -115.148271 59 2101ft 0kts
17-Mar-20 18:44 36.082021 -115.148271 59 2101ft 0kts
17-Mar-20 18:45 36.081917 -115.148783 105 2103ft 2kts
17-Mar-20 18:46 36.082194 -115.149168 155 2103ft 0kts
17-Mar-20 18:47 36.082194 -115.149168 155 2103ft 0kts
17-Mar-20 18:48 36.082194 -115.149168 155 2103ft 0kts
17-Mar-20 18:49 36.082194 -115.149168 155 2103ft 0kts
17-Mar-20 18:50 36.082194 -115.149168 155 2103ft 0kts
17-Mar-20 18:51 36.082000 -115.149075 165 2103ft 7kts
17-Mar-20 18:52 36.078689 -115.147983 128 2106ft 6kts
17-Mar-20 18:53 36.078267 -115.142035 90 2086ft 26kts
17-Mar-20 18:54 36.078258 -115.132679 90 2059ft 26kts
17-Mar-20 18:55 36.078250 -115.123428 91 2040ft 16kts
17-Mar-20 18:56 36.076988 -115.121244 172 2038ft 13kts
17-Mar-20 18:57 36.076538 -115.146123 269 2525ft 161kts
17-Mar-20 18:58 36.072973 -115.211202 250 4722ft 244kts
17-Mar-20 18:59 36.025297 -115.276506 202 6985ft 266kts
17-Mar-20 19:00 35.954406 -115.303431 187 8715ft 273kts
17-Mar-20 19:01 35.875928 -115.312925 186 12234ft 299kts
17-Mar-20 19:02 35.791565 -115.307641 178 15979ft 309kts
17-Mar-20 19:03 35.704944 -115.297762 179 18843ft 324kts
17-Mar-20 19:04 35.617786 -115.297030 185 18900ft 312kts
17-Mar-20 19:05 35.531250 -115.300973 190 18898ft 310kts
17-Mar-20 19:06 35.452333 -115.340524 209 18907ft 308kts
17-Mar-20 19:07 35.378712 -115.394058 210 18918ft 308kts
17-Mar-20 19:08 35.305152 -115.447459 210 18921ft 308kts
17-Mar-20 19:09 35.231203 -115.501030 210 18929ft 309kts
17-Mar-20 19:10 35.156626 -115.554946 210 21948ft 316kts
17-Mar-20 19:11 35.088507 -115.623888 223 24605ft 327kts
17-Mar-20 19:12 35.030246 -115.698646 223 24922ft 351kts
17-Mar-20 19:13 34.963124 -115.784324 223 24921ft 347kts
17-Mar-20 19:14 34.896166 -115.869550 223 24923ft 348kts
17-Mar-20 19:15 34.829056 -115.954772 223 24937ft 347kts
17-Mar-20 19:16 34.762293 -116.039338 223 24946ft 344kts
17-Mar-20 19:17 34.696182 -116.123481 223 24954ft 344kts
17-Mar-20 19:18 34.630297 -116.207289 223 24955ft 343kts
17-Mar-20 19:19 34.564267 -116.291068 223 24952ft 343kts
17-Mar-20 19:20 34.498276 -116.374575 223 24951ft 343kts
17-Mar-20 19:21 34.432442 -116.457741 224 24949ft 342kts
17-Mar-20 19:23 34.383316 -116.558372 238 24947ft 351kts
17-Mar-20 19:24 34.341466 -116.660485 236 24284ft 324kts
17-Mar-20 19:25 34.301593 -116.758831 237 23286ft 327kts
17-Mar-20 19:26 34.262081 -116.857039 237 22267ft 321kts
17-Mar-20 19:27 34.222985 -116.953876 237 21243ft 319kts
17-Mar-20 19:28 34.191686 -117.054665 245 20166ft 319kts
17-Mar-20 19:29 34.165123 -117.153394 245 18321ft 298kts
17-Mar-20 19:30 34.138357 -117.250516 246 16469ft 307kts
17-Mar-20 19:31 34.111856 -117.346747 247 14378ft 300kts
17-Mar-20 19:32 34.087052 -117.443169 251 12193ft 302kts
17-Mar-20 19:33 34.062356 -117.541111 251 11978ft 304kts
17-Mar-20 19:34 34.038755 -117.633423 251 10826ft 281kts
17-Mar-20 19:35 34.019078 -117.724770 262 9189ft 282kts
17-Mar-20 19:35 34.011888 -117.803156 262 8646ft 276kts
17-Mar-20 19:37 34.001901 -117.906225 262 7996ft 255kts
17-Mar-20 19:38 33.993729 -117.989356 262 7075ft 228kts
17-Mar-20 19:38 33.987203 -118.054902 262 5993ft 231kts
17-Mar-20 19:40 33.978656 -118.140799 262 4500ft 207kts
17-Mar-20 19:41 33.972382 -118.203170 261 3441ft 182kts
17-Mar-20 19:41 33.967457 -118.251952 261 2600ft 153kts
17-Mar-20 19:43 33.962042 -118.305179 262 1685ft 138kts
17-Mar-20 19:43 33.957988 -118.342960 262 1098ft 133kts
17-Mar-20 19:44 33.953685 -118.386638 263 395ft 130kts
17-Mar-20 19:45 33.950001 -118.418251 236 113ft 30kts
17-Mar-20 19:46 33.949405 -118.419243 232 113ft 0kts
17-Mar-20 19:47 33.949386 -118.419272 232 113ft 4kts
17-Mar-20 19:48 33.947023 -118.420676 82 113ft 12kts
17-Mar-20 19:49 33.947445 -118.416285 83 113ft 14kts
17-Mar-20 19:50 33.948158 -118.410706 83 113ft 19kts

Navigation Log

Ident Type
Flight plan parsing failed, navigation log unavailable